Time;durP1;ratioP1;P1;durP2;ratioP2;P2;SDS_P1;SDS_P2;PMS_P1;PMS_P2;Temp;Humidity;BMP_temperature;BMP_pressure;BME280_temperature;BME280_humidity;BME280_pressure;Samples;Min_cycle;Max_cycle;Signal;HPM_P1;HPM_P2
2023/05/19 00:01:44;;;;;;;3.10;1.83;;;;;;;;;;5058011;28;20057;-58
2023/05/19 00:04:13;;;;;;;3.03;1.70;;;;;;;;;;5052064;28;20077;-58
2023/05/19 00:06:40;;;;;;;1.63;1.38;;;;;;;;;;5047593;28;20049;-59
2023/05/19 00:09:08;;;;;;;3.25;2.00;;;;;;;;;;5055804;28;20060;-58
2023/05/19 00:11:35;;;;;;;3.08;1.70;;;;;;;;;;5064135;28;20114;-59
2023/05/19 00:14:02;;;;;;;2.38;1.75;;;;;;;;;;5064886;28;20079;-58
2023/05/19 00:16:29;;;;;;;3.13;2.10;;;;;;;;;;5061975;28;20091;-59
2023/05/19 00:19:00;;;;;;;5.22;2.45;;;;;;;;;;5063648;28;20136;-59
2023/05/19 00:21:27;;;;;;;3.38;1.98;;;;;;;;;;5063572;28;20081;-59
2023/05/19 00:23:53;;;;;;;2.35;2.00;;;;;;;;;;5058738;28;20114;-56
2023/05/19 00:26:21;;;;;;;6.18;2.10;;;;;;;;;;5058691;28;20049;-59
2023/05/19 00:28:48;;;;;;;4.05;1.75;;;;;;;;;;5059081;28;20060;-59
2023/05/19 00:31:15;;;;;;;6.60;2.80;;;;;;;;;;5058789;28;20134;-59
2023/05/19 00:33:41;;;;;;;2.75;2.10;;;;;;;;;;5056111;28;20502;-59
2023/05/19 00:36:07;;;;;;;5.00;2.60;;;;;;;;;;5059509;28;20083;-58
2023/05/19 00:38:35;;;;;;;4.72;2.00;;;;;;;;;;5048347;28;20108;-59
2023/05/19 00:41:02;;;;;;;4.07;2.28;;;;;;;;;;5059986;28;20244;-56
2023/05/19 00:43:29;;;;;;;2.85;1.77;;;;;;;;;;5061877;28;20141;-58
2023/05/19 00:45:56;;;;;;;3.83;2.15;;;;;;;;;;5061513;28;20095;-59
2023/05/19 00:48:23;;;;;;;8.32;2.38;;;;;;;;;;5056279;28;20056;-58
2023/05/19 00:50:51;;;;;;;7.20;2.00;;;;;;;;;;5055251;28;20057;-58
2023/05/19 00:53:17;;;;;;;8.07;2.10;;;;;;;;;;5053697;28;20521;-56
2023/05/19 00:55:44;;;;;;;4.70;1.90;;;;;;;;;;5060022;28;20063;-59
2023/05/19 00:58:11;;;;;;;3.63;1.90;;;;;;;;;;5058110;28;20131;-57
2023/05/19 01:00:38;;;;;;;5.30;2.17;;;;;;;;;;5051861;28;20475;-58
2023/05/19 01:03:09;;;;;;;1.55;1.45;;;;;;;;;;5060576;28;20132;-56
2023/05/19 01:05:38;;;;;;;3.17;1.80;;;;;;;;;;5052655;28;20056;-59
2023/05/19 01:08:04;;;;;;;3.38;2.38;;;;;;;;;;5061676;28;20049;-56
2023/05/19 01:10:30;;;;;;;4.47;2.47;;;;;;;;;;5060357;28;20053;-57
2023/05/19 01:12:57;;;;;;;1.60;1.50;;;;;;;;;;5061255;28;20256;-59
2023/05/19 01:15:25;;;;;;;3.53;2.10;;;;;;;;;;5061429;28;20079;-58
2023/05/19 01:18:02;;;;;;;4.55;2.50;;;;;;;;;;5060685;28;20049;-59
2023/05/19 01:20:37;;;;;;;2.72;1.67;;;;;;;;;;5054962;28;20045;-58
2023/05/19 01:23:22;;;;;;;5.75;2.03;;;;;;;;;;5060622;28;20987;-59
2023/05/19 01:25:52;;;;;;;2.35;1.90;;;;;;;;;;5071812;28;20064;-58
2023/05/19 01:28:18;;;;;;;2.38;1.88;;;;;;;;;;5055345;28;20145;-59
2023/05/19 01:30:47;;;;;;;7.05;2.17;;;;;;;;;;5059248;28;20057;-58
2023/05/19 01:33:14;;;;;;;2.83;1.45;;;;;;;;;;5053763;28;20576;-57
2023/05/19 01:35:41;;;;;;;3.33;1.80;;;;;;;;;;5061523;28;20096;-59
2023/05/19 01:38:09;;;;;;;4.35;2.38;;;;;;;;;;5060355;28;20130;-59
2023/05/19 01:40:36;;;;;;;3.03;2.00;;;;;;;;;;5055425;28;20085;-58
2023/05/19 01:43:03;;;;;;;4.05;2.97;;;;;;;;;;5058754;28;20426;-57
2023/05/19 01:45:30;;;;;;;2.33;1.92;;;;;;;;;;5064926;28;20064;-59
2023/05/19 01:47:58;;;;;;;3.95;1.80;;;;;;;;;;5063550;28;20077;-59
2023/05/19 01:50:25;;;;;;;2.40;2.10;;;;;;;;;;5066068;28;20061;-59
2023/05/19 01:52:51;;;;;;;3.67;2.00;;;;;;;;;;5065847;28;20049;-57
2023/05/19 01:55:18;;;;;;;2.03;1.70;;;;;;;;;;5060183;28;20092;-58
2023/05/19 01:57:44;;;;;;;2.25;1.60;;;;;;;;;;5063058;28;20057;-58
2023/05/19 02:00:14;;;;;;;3.45;1.90;;;;;;;;;;5071571;28;20053;-58
2023/05/19 02:02:43;;;;;;;3.50;2.03;;;;;;;;;;5063739;28;20091;-58
2023/05/19 02:05:17;;;;;;;3.15;2.03;;;;;;;;;;5057026;28;20115;-59
2023/05/19 02:07:46;;;;;;;2.65;1.73;;;;;;;;;;5063702;28;20092;-57
2023/05/19 02:10:24;;;;;;;3.67;1.50;;;;;;;;;;5055199;28;20145;-58
2023/05/19 02:12:52;;;;;;;1.63;1.42;;;;;;;;;;5063044;28;20065;-58
2023/05/19 02:15:20;;;;;;;2.95;1.90;;;;;;;;;;5063868;28;20175;-56
2023/05/19 02:17:49;;;;;;;1.92;1.77;;;;;;;;;;5065109;28;20053;-56
2023/05/19 02:20:16;;;;;;;2.90;1.73;;;;;;;;;;5065469;28;20059;-58
2023/05/19 02:22:43;;;;;;;1.92;1.52;;;;;;;;;;5069961;28;20672;-57
2023/05/19 02:25:10;;;;;;;5.43;1.70;;;;;;;;;;5055623;28;20053;-59
2023/05/19 02:27:37;;;;;;;6.65;2.20;;;;;;;;;;5047021;28;20057;-59
2023/05/19 02:30:04;;;;;;;8.20;2.45;;;;;;;;;;5066550;28;20498;-59
2023/05/19 02:32:31;;;;;;;3.58;1.90;;;;;;;;;;5051474;28;20057;-59
2023/05/19 02:34:57;;;;;;;3.90;1.90;;;;;;;;;;5062575;28;20053;-59
2023/05/19 02:37:24;;;;;;;1.92;1.73;;;;;;;;;;5059981;28;20510;-59
2023/05/19 02:39:50;;;;;;;4.10;1.77;;;;;;;;;;5063929;28;20053;-56
2023/05/19 02:42:17;;;;;;;6.53;1.80;;;;;;;;;;5057931;28;20088;-59
2023/05/19 02:44:43;;;;;;;5.53;2.20;;;;;;;;;;5062382;28;20114;-54
2023/05/19 02:47:09;;;;;;;7.88;2.58;;;;;;;;;;5060043;28;20053;-56
2023/05/19 02:49:36;;;;;;;2.50;2.10;;;;;;;;;;5059689;28;20057;-59
2023/05/19 02:52:03;;;;;;;2.97;1.90;;;;;;;;;;5063494;28;20107;-56
2023/05/19 02:54:30;;;;;;;3.58;2.22;;;;;;;;;;5063134;28;20057;-59
2023/05/19 02:56:56;;;;;;;5.63;2.83;;;;;;;;;;5064185;28;20194;-56
2023/05/19 02:59:23;;;;;;;2.30;1.65;;;;;;;;;;5058158;28;20076;-59
2023/05/19 03:01:54;;;;;;;3.58;2.20;;;;;;;;;;5063659;28;20506;-59
2023/05/19 03:04:21;;;;;;;5.50;2.05;;;;;;;;;;5060300;28;20118;-59
2023/05/19 03:06:47;;;;;;;6.20;2.72;;;;;;;;;;5058951;28;20053;-59
2023/05/19 03:09:14;;;;;;;5.38;2.38;;;;;;;;;;5063584;28;20061;-58
2023/05/19 03:11:40;;;;;;;2.63;1.65;;;;;;;;;;5062141;28;20063;-58
2023/05/19 03:14:10;;;;;;;7.88;2.58;;;;;;;;;;5062724;28;20053;-56
2023/05/19 03:16:39;;;;;;;3.75;2.10;;;;;;;;;;5059646;28;20886;-57
2023/05/19 03:19:06;;;;;;;4.55;2.45;;;;;;;;;;5063163;28;20061;-59
2023/05/19 03:21:33;;;;;;;3.97;2.20;;;;;;;;;;5058385;28;20152;-58
2023/05/19 03:24:00;;;;;;;2.08;1.88;;;;;;;;;;5063138;28;20114;-59
2023/05/19 03:26:28;;;;;;;2.60;2.10;;;;;;;;;;5052927;28;20556;-59
2023/05/19 03:28:54;;;;;;;4.25;2.05;;;;;;;;;;5046040;28;20123;-57
2023/05/19 03:31:20;;;;;;;2.05;1.83;;;;;;;;;;5051773;28;20143;-56
2023/05/19 03:33:47;;;;;;;4.10;2.63;;;;;;;;;;5058534;28;20048;-55
2023/05/19 03:36:13;;;;;;;4.80;2.00;;;;;;;;;;5062476;28;20103;-56
2023/05/19 03:38:40;;;;;;;3.10;2.30;;;;;;;;;;5063555;28;20045;-57
2023/05/19 03:41:06;;;;;;;2.85;2.28;;;;;;;;;;5053965;28;20511;-56
2023/05/19 03:43:32;;;;;;;4.03;2.63;;;;;;;;;;5056050;28;20144;-56
2023/05/19 03:45:59;;;;;;;3.72;2.75;;;;;;;;;;5058084;28;20625;-58
2023/05/19 03:48:25;;;;;;;4.60;2.13;;;;;;;;;;5064282;28;20060;-57
2023/05/19 03:50:53;;;;;;;2.95;1.73;;;;;;;;;;5062730;28;20135;-58
2023/05/19 03:53:19;;;;;;;3.42;2.25;;;;;;;;;;5064131;28;20072;-56
2023/05/19 03:55:47;;;;;;;8.30;2.50;;;;;;;;;;5063229;28;20650;-58
2023/05/19 03:58:13;;;;;;;6.88;2.75;;;;;;;;;;5062408;28;20052;-59
2023/05/19 04:00:40;;;;;;;3.60;2.60;;;;;;;;;;5057785;28;20055;-57
2023/05/19 04:03:07;;;;;;;4.32;2.38;;;;;;;;;;5062990;28;20114;-57
2023/05/19 04:05:33;;;;;;;6.15;3.13;;;;;;;;;;5063481;28;20152;-56
2023/05/19 04:08:00;;;;;;;4.25;1.90;;;;;;;;;;5061256;28;20057;-58
2023/05/19 04:10:26;;;;;;;2.95;2.03;;;;;;;;;;5064383;28;20555;-59
2023/05/19 04:12:53;;;;;;;2.83;2.17;;;;;;;;;;5061111;28;20059;-56
2023/05/19 04:15:19;;;;;;;5.47;2.58;;;;;;;;;;5051889;28;20603;-59
2023/05/19 04:17:45;;;;;;;4.00;2.13;;;;;;;;;;5051077;28;20136;-57
2023/05/19 04:20:12;;;;;;;3.53;1.75;;;;;;;;;;5063964;28;20044;-58
2023/05/19 04:22:38;;;;;;;5.05;1.98;;;;;;;;;;5075958;28;20059;-59
2023/05/19 04:25:06;;;;;;;3.72;2.20;;;;;;;;;;5064464;28;20053;-58
2023/05/19 04:27:35;;;;;;;4.40;2.47;;;;;;;;;;5053428;28;20049;-57
2023/05/19 04:30:02;;;;;;;4.60;2.60;;;;;;;;;;5057929;28;20060;-59
2023/05/19 04:32:29;;;;;;;2.38;1.98;;;;;;;;;;5049448;28;20060;-59
2023/05/19 04:34:57;;;;;;;4.63;2.83;;;;;;;;;;5063492;28;20057;-60
2023/05/19 04:37:24;;;;;;;5.15;2.30;;;;;;;;;;5063865;28;20081;-57
2023/05/19 04:39:51;;;;;;;6.82;3.03;;;;;;;;;;5062022;28;20075;-58
2023/05/19 04:42:20;;;;;;;8.68;2.28;;;;;;;;;;5056860;28;20064;-59
2023/05/19 04:44:48;;;;;;;5.13;2.33;;;;;;;;;;5063733;28;20061;-56
2023/05/19 04:47:14;;;;;;;4.80;3.00;;;;;;;;;;5060588;28;20117;-57
2023/05/19 04:49:41;;;;;;;3.58;2.60;;;;;;;;;;5062087;28;20064;-57
2023/05/19 04:52:11;;;;;;;3.63;2.28;;;;;;;;;;5057788;28;20126;-59
2023/05/19 04:54:38;;;;;;;3.47;2.13;;;;;;;;;;5064120;28;20108;-59
2023/05/19 04:57:05;;;;;;;4.30;2.30;;;;;;;;;;5059640;28;20972;-59
2023/05/19 04:59:32;;;;;;;7.22;3.05;;;;;;;;;;5062539;28;20592;-58
2023/05/19 05:01:58;;;;;;;5.32;3.15;;;;;;;;;;5061906;28;20060;-58
2023/05/19 05:04:25;;;;;;;4.03;2.42;;;;;;;;;;5063019;28;20053;-59
2023/05/19 05:06:51;;;;;;;4.13;2.35;;;;;;;;;;5048412;28;20049;-56
2023/05/19 05:09:18;;;;;;;3.03;2.50;;;;;;;;;;5061188;28;20086;-58
2023/05/19 05:11:45;;;;;;;4.80;2.95;;;;;;;;;;5060709;28;20132;-57
2023/05/19 05:14:11;;;;;;;5.18;2.58;;;;;;;;;;5057817;28;20060;-55
2023/05/19 05:16:38;;;;;;;4.32;3.10;;;;;;;;;;5062650;28;20060;-58
2023/05/19 05:19:04;;;;;;;5.28;3.05;;;;;;;;;;5056137;28;20523;-58
2023/05/19 05:21:31;;;;;;;4.97;2.65;;;;;;;;;;5054297;28;20049;-57
2023/05/19 05:23:58;;;;;;;6.57;3.00;;;;;;;;;;5059938;28;20914;-59
2023/05/19 05:26:27;;;;;;;4.40;2.97;;;;;;;;;;5065967;28;20060;-58
2023/05/19 05:28:54;;;;;;;2.63;2.13;;;;;;;;;;5064118;28;20136;-56
2023/05/19 05:31:20;;;;;;;4.05;2.30;;;;;;;;;;5063529;28;20136;-59
2023/05/19 05:33:46;;;;;;;3.50;2.83;;;;;;;;;;5062481;28;20479;-57
2023/05/19 05:36:13;;;;;;;4.22;2.30;;;;;;;;;;5062415;28;20053;-57
2023/05/19 05:38:40;;;;;;;4.13;2.63;;;;;;;;;;5047637;28;20049;-60
2023/05/19 05:41:06;;;;;;;4.15;2.85;;;;;;;;;;5058211;28;20102;-59
2023/05/19 05:43:32;;;;;;;3.92;2.85;;;;;;;;;;5049994;28;20437;-58
2023/05/19 05:45:59;;;;;;;4.13;3.22;;;;;;;;;;5062542;28;20060;-60
2023/05/19 05:48:25;;;;;;;3.97;2.67;;;;;;;;;;5062828;28;20247;-59
2023/05/19 05:50:53;;;;;;;6.28;3.53;;;;;;;;;;5062821;28;20080;-59
2023/05/19 05:53:20;;;;;;;4.88;3.00;;;;;;;;;;5063096;28;20057;-57
2023/05/19 05:55:46;;;;;;;5.60;2.78;;;;;;;;;;5060994;28;20517;-55
2023/05/19 05:58:13;;;;;;;3.75;2.58;;;;;;;;;;5063443;28;20049;-56
2023/05/19 06:00:44;;;;;;;4.60;2.83;;;;;;;;;;5061600;28;20943;-58
2023/05/19 06:03:10;;;;;;;3.60;3.17;;;;;;;;;;5047840;28;20060;-59
2023/05/19 06:05:37;;;;;;;8.13;3.20;;;;;;;;;;5059100;28;20053;-59
2023/05/19 06:08:04;;;;;;;6.25;3.08;;;;;;;;;;5052513;28;20077;-58
2023/05/19 06:10:31;;;;;;;8.93;3.40;;;;;;;;;;5053213;28;20060;-57
2023/05/19 06:12:58;;;;;;;6.47;2.88;;;;;;;;;;5055193;28;20574;-57
2023/05/19 06:15:24;;;;;;;7.40;3.72;;;;;;;;;;5062185;28;20053;-55
2023/05/19 06:17:51;;;;;;;6.25;3.00;;;;;;;;;;5062735;28;20644;-59
2023/05/19 06:20:17;;;;;;;4.65;3.38;;;;;;;;;;5061738;28;20427;-55
2023/05/19 06:22:43;;;;;;;7.18;2.78;;;;;;;;;;5050553;28;20164;-59
2023/05/19 06:25:10;;;;;;;4.07;2.72;;;;;;;;;;5058688;28;20465;-60
2023/05/19 06:27:36;;;;;;;3.35;2.33;;;;;;;;;;5051166;28;20079;-59
2023/05/19 06:30:03;;;;;;;9.85;3.22;;;;;;;;;;5063106;28;20053;-58
2023/05/19 06:32:29;;;;;;;3.92;2.95;;;;;;;;;;5065295;28;20133;-57
2023/05/19 06:34:55;;;;;;;4.47;2.78;;;;;;;;;;5064522;28;20053;-58
2023/05/19 06:37:22;;;;;;;4.75;2.30;;;;;;;;;;5061230;28;20083;-59
2023/05/19 06:39:52;;;;;;;4.43;2.70;;;;;;;;;;5057436;28;20053;-58
2023/05/19 06:42:21;;;;;;;5.95;3.28;;;;;;;;;;5086013;28;20055;-59
2023/05/19 06:44:48;;;;;;;5.53;3.22;;;;;;;;;;5064796;28;20048;-58
2023/05/19 06:47:15;;;;;;;2.97;2.15;;;;;;;;;;5065497;28;20499;-58
2023/05/19 06:49:41;;;;;;;4.25;2.58;;;;;;;;;;5063927;28;20057;-59
2023/05/19 06:52:08;;;;;;;3.53;3.13;;;;;;;;;;5062875;28;20044;-60
2023/05/19 06:54:34;;;;;;;5.50;3.13;;;;;;;;;;5064665;28;20084;-58
2023/05/19 06:57:01;;;;;;;4.20;2.50;;;;;;;;;;5065236;28;20724;-58
2023/05/19 06:59:27;;;;;;;7.40;3.33;;;;;;;;;;5062668;28;20056;-56
2023/05/19 07:01:53;;;;;;;3.38;2.47;;;;;;;;;;5061875;28;20587;-57
2023/05/19 07:04:20;;;;;;;7.45;2.60;;;;;;;;;;5062266;28;20053;-60
2023/05/19 07:06:46;;;;;;;4.68;3.20;;;;;;;;;;5062679;28;20056;-59
2023/05/19 07:09:13;;;;;;;4.95;3.65;;;;;;;;;;5064572;28;20118;-59
2023/05/19 07:11:39;;;;;;;4.05;2.67;;;;;;;;;;5059840;28;20057;-57
2023/05/19 07:14:06;;;;;;;4.97;2.38;;;;;;;;;;5058770;28;20059;-60
2023/05/19 07:16:32;;;;;;;3.55;1.95;;;;;;;;;;5058758;28;20115;-58
2023/05/19 07:18:58;;;;;;;4.97;2.67;;;;;;;;;;5051912;28;20063;-60
2023/05/19 07:21:25;;;;;;;3.72;2.85;;;;;;;;;;5062703;28;20067;-60
2023/05/19 07:23:51;;;;;;;3.72;2.42;;;;;;;;;;5063881;28;20103;-60
2023/05/19 07:26:18;;;;;;;4.00;2.78;;;;;;;;;;5066406;28;20063;-58
2023/05/19 07:28:44;;;;;;;3.50;2.40;;;;;;;;;;5063512;28;20092;-60
2023/05/19 07:31:11;;;;;;;3.42;2.35;;;;;;;;;;5063691;28;20053;-59
2023/05/19 07:33:37;;;;;;;4.70;2.25;;;;;;;;;;5067423;28;20064;-59
2023/05/19 07:36:03;;;;;;;5.55;2.15;;;;;;;;;;5061975;28;20138;-60
2023/05/19 07:38:33;;;;;;;1.73;1.60;;;;;;;;;;5059021;28;20049;-59
2023/05/19 07:41:00;;;;;;;7.10;2.90;;;;;;;;;;5062862;28;20065;-55
2023/05/19 07:43:26;;;;;;;4.65;2.45;;;;;;;;;;5062206;28;20059;-58
2023/05/19 07:45:54;;;;;;;3.35;2.13;;;;;;;;;;5064329;28;20458;-58
2023/05/19 07:48:23;;;;;;;2.22;1.75;;;;;;;;;;5064542;28;20057;-59
2023/05/19 07:50:50;;;;;;;5.50;2.05;;;;;;;;;;5056824;28;20502;-39
2023/05/19 07:53:16;;;;;;;3.20;1.98;;;;;;;;;;5055844;28;20119;-61
2023/05/19 07:55:42;;;;;;;2.95;1.88;;;;;;;;;;5064675;28;20083;-60
2023/05/19 07:58:09;;;;;;;3.00;2.00;;;;;;;;;;5064172;28;20047;-61
2023/05/19 08:00:36;;;;;;;1.88;1.50;;;;;;;;;;5063736;28;20052;-60
2023/05/19 08:03:02;;;;;;;2.05;1.77;;;;;;;;;;5063980;28;20144;-61
2023/05/19 08:05:29;;;;;;;4.78;1.58;;;;;;;;;;5064024;28;20081;-61
2023/05/19 08:07:56;;;;;;;2.92;2.10;;;;;;;;;;5064623;28;20495;-60
2023/05/19 08:10:22;;;;;;;3.38;1.77;;;;;;;;;;5064476;28;20384;-60
2023/05/19 08:12:49;;;;;;;4.75;1.92;;;;;;;;;;5063725;28;20061;-59
2023/05/19 08:15:15;;;;;;;2.00;1.60;;;;;;;;;;5064100;28;20052;-60
2023/05/19 08:17:42;;;;;;;4.57;1.17;;;;;;;;;;5057945;28;20058;-60
2023/05/19 08:20:09;;;;;;;3.10;1.10;;;;;;;;;;5057257;28;20192;-35
2023/05/19 08:22:35;;;;;;;11.85;1.35;;;;;;;;;;5067281;28;20049;-60
2023/05/19 08:25:04;;;;;;;2.42;1.83;;;;;;;;;;5063377;28;20159;-59
2023/05/19 08:27:31;;;;;;;3.92;0.88;;;;;;;;;;5064359;28;20057;-59
2023/05/19 08:29:58;;;;;;;5.13;1.60;;;;;;;;;;5062893;28;20053;-57
2023/05/19 08:32:24;;;;;;;2.95;1.45;;;;;;;;;;5064622;28;20171;-58
2023/05/19 08:34:51;;;;;;;1.83;1.15;;;;;;;;;;5063319;28;20068;-58
2023/05/19 08:37:17;;;;;;;3.10;1.92;;;;;;;;;;5064402;28;20534;-58
2023/05/19 08:39:43;;;;;;;1.92;1.35;;;;;;;;;;5063668;28;20052;-59
2023/05/19 08:42:10;;;;;;;4.13;1.25;;;;;;;;;;5063981;28;20067;-58
2023/05/19 08:44:36;;;;;;;2.80;1.38;;;;;;;;;;5064242;28;20081;-58
2023/05/19 08:47:11;;;;;;;2.85;1.20;;;;;;;;;;5063177;28;20562;-57
2023/05/19 08:49:44;;;;;;;2.17;1.40;;;;;;;;;;5060599;28;20093;-59
2023/05/19 08:52:18;;;;;;;5.88;1.88;;;;;;;;;;5062570;28;20049;-59
2023/05/19 08:54:45;;;;;;;1.90;1.08;;;;;;;;;;5063094;28;20618;-59
2023/05/19 08:57:12;;;;;;;2.58;1.25;;;;;;;;;;5063521;28;20055;-59
2023/05/19 08:59:39;;;;;;;4.95;1.17;;;;;;;;;;5064265;28;20079;-56
2023/05/19 09:02:07;;;;;;;1.15;1.10;;;;;;;;;;5062502;28;20049;-59
2023/05/19 09:04:33;;;;;;;1.13;1.02;;;;;;;;;;5063464;28;20457;-57
2023/05/19 09:07:02;;;;;;;2.22;1.08;;;;;;;;;;5061229;28;20061;-56
2023/05/19 09:09:29;;;;;;;1.10;1.00;;;;;;;;;;5063122;28;20088;-59
2023/05/19 09:11:55;;;;;;;4.72;1.85;;;;;;;;;;5063480;28;20524;-58
2023/05/19 09:14:21;;;;;;;4.50;1.38;;;;;;;;;;5063512;28;20059;-59
2023/05/19 09:16:51;;;;;;;1.92;1.15;;;;;;;;;;5060497;28;20088;-58
2023/05/19 09:19:19;;;;;;;4.93;1.13;;;;;;;;;;5053924;28;20048;-58
2023/05/19 09:21:56;;;;;;;1.75;1.10;;;;;;;;;;5067334;28;20060;-60
2023/05/19 09:24:24;;;;;;;2.38;1.40;;;;;;;;;;5063740;28;20049;-60
2023/05/19 09:26:50;;;;;;;1.85;1.45;;;;;;;;;;5063388;28;20064;-58
2023/05/19 09:29:17;;;;;;;3.13;1.13;;;;;;;;;;5062079;28;20053;-61
2023/05/19 09:31:48;;;;;;;1.63;1.20;;;;;;;;;;5062577;28;20128;-58
2023/05/19 09:34:15;;;;;;;1.50;1.40;;;;;;;;;;5063214;28;20057;-57
2023/05/19 09:36:41;;;;;;;7.50;1.80;;;;;;;;;;5062888;28;20815;-59
2023/05/19 09:39:11;;;;;;;3.38;1.50;;;;;;;;;;5062957;28;20057;-57
2023/05/19 09:41:38;;;;;;;2.92;1.30;;;;;;;;;;5062613;28;20057;-59
2023/05/19 09:44:06;;;;;;;3.03;1.35;;;;;;;;;;5062961;28;20113;-59
2023/05/19 09:46:34;;;;;;;3.03;1.33;;;;;;;;;;5061633;28;20144;-58
2023/05/19 09:49:10;;;;;;;2.53;1.17;;;;;;;;;;5062954;28;20756;-59
2023/05/19 09:51:36;;;;;;;4.20;1.38;;;;;;;;;;5062866;28;20056;-58
2023/05/19 09:54:03;;;;;;;2.97;1.45;;;;;;;;;;5062395;28;20132;-59
2023/05/19 09:56:36;;;;;;;2.13;1.35;;;;;;;;;;5065198;28;20048;-61
2023/05/19 09:59:03;;;;;;;1.55;1.17;;;;;;;;;;5073695;28;20122;-59
2023/05/19 10:01:32;;;;;;;2.50;1.45;;;;;;;;;;5064465;28;20059;-60
2023/05/19 10:03:59;;;;;;;3.45;1.20;;;;;;;;;;5064296;28;20049;-59
2023/05/19 10:06:25;;;;;;;2.20;1.63;;;;;;;;;;5063357;28;20061;-60
2023/05/19 10:08:53;;;;;;;1.42;1.00;;;;;;;;;;5065574;28;20082;-60
2023/05/19 10:11:21;;;;;;;3.25;1.30;;;;;;;;;;5069946;28;20057;-59
2023/05/19 10:13:49;;;;;;;2.38;1.25;;;;;;;;;;5067621;28;20060;-59
2023/05/19 10:16:16;;;;;;;2.13;1.10;;;;;;;;;;5060057;28;20832;-60
2023/05/19 10:18:42;;;;;;;2.05;1.25;;;;;;;;;;5064241;28;20067;-59
2023/05/19 10:21:09;;;;;;;2.15;1.23;;;;;;;;;;5066462;28;20119;-59
2023/05/19 10:23:35;;;;;;;2.10;1.30;;;;;;;;;;5073410;28;20090;-59
2023/05/19 10:26:03;;;;;;;2.13;1.40;;;;;;;;;;5057993;28;20143;-59
2023/05/19 10:28:33;;;;;;;2.92;1.08;;;;;;;;;;5065808;28;20155;-59
2023/05/19 10:31:00;;;;;;;2.05;1.10;;;;;;;;;;5061607;28;20041;-39
2023/05/19 10:33:36;;;;;;;1.75;1.20;;;;;;;;;;5060489;28;20124;-32
2023/05/19 10:36:11;;;;;;;1.83;1.48;;;;;;;;;;5058839;28;20865;-60
2023/05/19 10:38:38;;;;;;;;;;;;;;;;;;5073499;28;20052;-57
2023/05/19 10:41:15;;;;;;;3.05;1.50;;;;;;;;;;5064300;28;45455;-58
2023/05/19 10:43:44;;;;;;;6.25;1.35;;;;;;;;;;5065405;28;20515;-57
2023/05/19 10:46:11;;;;;;;1.92;1.27;;;;;;;;;;5063317;28;20096;-57
2023/05/19 10:48:42;;;;;;;4.10;1.60;;;;;;;;;;5065805;28;20119;-58
2023/05/19 10:51:10;;;;;;;2.65;1.02;;;;;;;;;;5065175;28;20080;-59
2023/05/19 10:53:39;;;;;;;3.63;1.15;;;;;;;;;;5067166;28;20057;-57
2023/05/19 10:56:08;;;;;;;3.17;1.40;;;;;;;;;;5065307;28;20123;-59
2023/05/19 10:58:38;;;;;;;5.63;1.38;;;;;;;;;;5065866;28;20049;-57
2023/05/19 11:01:14;;;;;;;1.80;1.30;;;;;;;;;;5066466;28;20540;-61
2023/05/19 11:03:43;;;;;;;1.85;1.60;;;;;;;;;;5067355;28;20115;-59
2023/05/19 11:06:20;;;;;;;3.90;1.67;;;;;;;;;;5066492;28;20056;-59
2023/05/19 11:08:51;;;;;;;3.80;1.70;;;;;;;;;;5065667;28;20057;-58
2023/05/19 11:11:17;;;;;;;2.38;1.05;;;;;;;;;;5066150;28;20130;-59
2023/05/19 11:13:49;;;;;;;3.30;1.35;;;;;;;;;;5064956;28;20107;-58
2023/05/19 11:16:25;;;;;;;2.00;1.27;;;;;;;;;;5065513;28;20497;-59
2023/05/19 11:18:52;;;;;;;3.45;1.25;;;;;;;;;;5065223;28;20087;-58
2023/05/19 11:21:19;;;;;;;4.65;1.65;;;;;;;;;;5065262;28;20162;-59
2023/05/19 11:23:45;;;;;;;1.00;1.00;;;;;;;;;;5052671;28;20053;-59
2023/05/19 11:26:12;;;;;;;1.98;1.17;;;;;;;;;;5064717;28;20049;-59
2023/05/19 11:28:39;;;;;;;3.20;1.17;;;;;;;;;;5064136;28;20053;-59
2023/05/19 11:31:09;;;;;;;1.10;1.00;;;;;;;;;;5064255;28;20045;-59
2023/05/19 11:33:36;;;;;;;4.22;1.17;;;;;;;;;;5064622;28;20052;-59
2023/05/19 11:36:03;;;;;;;3.33;1.00;;;;;;;;;;5063312;28;20465;-59
2023/05/19 11:38:30;;;;;;;2.35;1.08;;;;;;;;;;5065938;28;20095;-59
2023/05/19 11:40:56;;;;;;;1.90;1.33;;;;;;;;;;5064323;28;20608;-60
2023/05/19 11:43:23;;;;;;;3.08;1.30;;;;;;;;;;5073004;28;20049;-57
2023/05/19 11:45:50;;;;;;;2.13;1.55;;;;;;;;;;5064291;28;20468;-59
2023/05/19 11:48:19;;;;;;;2.30;1.20;;;;;;;;;;5065436;28;20111;-59
2023/05/19 11:50:45;;;;;;;2.10;1.20;;;;;;;;;;5045016;28;20053;-58
2023/05/19 11:53:12;;;;;;;1.65;1.30;;;;;;;;;;5059304;28;20061;-60
2023/05/19 11:55:43;;;;;;;1.92;1.00;;;;;;;;;;5062933;28;20556;-59
2023/05/19 11:58:11;;;;;;;4.70;1.60;;;;;;;;;;5047023;28;20112;-57
2023/05/19 12:00:38;;;;;;;2.97;1.40;;;;;;;;;;5065216;28;20572;-59
2023/05/19 12:03:05;;;;;;;2.70;1.50;;;;;;;;;;5064286;28;20053;-59
2023/05/19 12:05:35;;;;;;;2.53;1.35;;;;;;;;;;5064578;28;20127;-59
2023/05/19 12:08:07;;;;;;;;;;;;;;;;;;5065170;28;20060;-59
2023/05/19 12:10:34;;;;;;;2.50;2.00;;;;;;;;;;5062464;28;44829;-59
2023/05/19 12:13:01;;;;;;;5.50;1.90;;;;;;;;;;5064816;28;20052;-59
2023/05/19 12:15:28;;;;;;;3.40;1.90;;;;;;;;;;5064033;28;20140;-59
2023/05/19 12:17:58;;;;;;;5.03;1.98;;;;;;;;;;5064355;28;20049;-59
2023/05/19 12:20:26;;;;;;;2.15;1.50;;;;;;;;;;5064891;28;20053;-59
2023/05/19 12:22:54;;;;;;;1.98;1.77;;;;;;;;;;5076966;28;20102;-58
2023/05/19 12:25:20;;;;;;;3.58;2.22;;;;;;;;;;5065352;28;20146;-59
2023/05/19 12:27:52;;;;;;;3.72;2.42;;;;;;;;;;5064195;28;20607;-59
2023/05/19 12:30:24;;;;;;;1.98;1.77;;;;;;;;;;5063513;28;20051;-59
2023/05/19 12:32:52;;;;;;;3.05;1.50;;;;;;;;;;5063984;28;20135;-59
2023/05/19 12:35:19;;;;;;;4.22;2.45;;;;;;;;;;5064892;28;20181;-60
2023/05/19 12:37:47;;;;;;;4.93;1.90;;;;;;;;;;5062617;28;20049;-58
2023/05/19 12:40:15;;;;;;;5.40;1.90;;;;;;;;;;5062905;28;20052;-60
2023/05/19 12:42:45;;;;;;;3.50;1.55;;;;;;;;;;5064502;28;20523;-55
2023/05/19 12:45:11;;;;;;;3.78;1.60;;;;;;;;;;5063648;28;20122;-59
2023/05/19 12:47:37;;;;;;;1.88;1.48;;;;;;;;;;5063775;28;20107;-59
2023/05/19 12:50:08;;;;;;;2.28;1.40;;;;;;;;;;5063125;28;20111;-59
2023/05/19 12:53:01;;;;;;;3.83;1.60;;;;;;;;;;5062570;28;20061;-59
2023/05/19 12:55:28;;;;;;;3.00;1.70;;;;;;;;;;5060459;28;20549;-58
2023/05/19 12:57:57;;;;;;;4.47;1.65;;;;;;;;;;5064166;28;20841;-56
2023/05/19 13:00:26;;;;;;;3.67;1.67;;;;;;;;;;5061549;28;20049;-58
2023/05/19 13:03:07;;;;;;;3.75;2.00;;;;;;;;;;5053078;28;20053;-60
2023/05/19 13:05:35;;;;;;;3.55;1.45;;;;;;;;;;5052636;28;20041;-59
2023/05/19 13:08:08;;;;;;;1.77;1.30;;;;;;;;;;5063276;28;20130;-58
2023/05/19 13:10:36;;;;;;;4.28;1.95;;;;;;;;;;5063606;28;20041;-59
2023/05/19 13:13:02;;;;;;;2.10;1.52;;;;;;;;;;5061923;28;20053;-59
2023/05/19 13:15:32;;;;;;;1.55;1.20;;;;;;;;;;5068620;28;20430;-59
2023/05/19 13:17:59;;;;;;;3.50;1.60;;;;;;;;;;5063418;28;20506;-58
2023/05/19 13:20:26;;;;;;;1.60;1.48;;;;;;;;;;5063600;28;20434;-59
2023/05/19 13:22:54;;;;;;;11.23;1.98;;;;;;;;;;5076009;28;20052;-59
2023/05/19 13:25:21;;;;;;;3.97;1.30;;;;;;;;;;5067079;28;20053;-59
2023/05/19 13:27:47;;;;;;;2.10;1.40;;;;;;;;;;5063295;28;20140;-59
2023/05/19 13:30:14;;;;;;;6.28;1.63;;;;;;;;;;5063036;28;20450;-59
2023/05/19 13:32:41;;;;;;;3.33;1.77;;;;;;;;;;5063576;28;20758;-59
2023/05/19 13:35:08;;;;;;;5.03;1.55;;;;;;;;;;5063420;28;20068;-59
2023/05/19 13:37:34;;;;;;;4.13;1.63;;;;;;;;;;5066286;28;20053;-59
2023/05/19 13:40:01;;;;;;;3.55;1.63;;;;;;;;;;5066479;28;20068;-59
2023/05/19 13:42:28;;;;;;;4.10;1.60;;;;;;;;;;5067128;28;20057;-55
2023/05/19 13:44:57;;;;;;;5.05;1.75;;;;;;;;;;5066858;28;20738;-59
2023/05/19 13:47:24;;;;;;;1.65;1.20;;;;;;;;;;5066638;28;20111;-59
2023/05/19 13:49:51;;;;;;;1.92;1.40;;;;;;;;;;5066943;28;20061;-59
2023/05/19 13:52:19;;;;;;;1.30;1.20;;;;;;;;;;5066514;28;20053;-59
2023/05/19 13:54:46;;;;;;;5.28;1.90;;;;;;;;;;5066899;28;20445;-58
2023/05/19 13:57:12;;;;;;;2.60;1.30;;;;;;;;;;5060161;28;20058;-59
2023/05/19 13:59:40;;;;;;;1.85;1.08;;;;;;;;;;5055936;28;20060;-57
2023/05/19 14:02:25;;;;;;;5.88;1.65;;;;;;;;;;5066328;28;20131;-59
2023/05/19 14:04:53;;;;;;;2.88;1.23;;;;;;;;;;5081901;28;20522;-59
2023/05/19 14:07:20;;;;;;;2.17;1.42;;;;;;;;;;5066824;28;20059;-59
2023/05/19 14:09:46;;;;;;;3.15;1.45;;;;;;;;;;5066220;28;20059;-58
2023/05/19 14:12:12;;;;;;;3.58;1.73;;;;;;;;;;5066207;28;20599;-60
2023/05/19 14:14:39;;;;;;;1.83;1.42;;;;;;;;;;5066198;28;20065;-59
2023/05/19 14:17:05;;;;;;;1.83;1.38;;;;;;;;;;5065714;28;20219;-61
2023/05/19 14:19:32;;;;;;;3.05;1.33;;;;;;;;;;5065845;28;20052;-59
2023/05/19 14:21:59;;;;;;;3.80;1.50;;;;;;;;;;5070273;28;20056;-59
2023/05/19 14:24:25;;;;;;;3.10;1.52;;;;;;;;;;5071124;28;20146;-59
2023/05/19 14:26:52;;;;;;;5.05;1.25;;;;;;;;;;5069079;28;20045;-58
2023/05/19 14:29:18;;;;;;;4.68;1.60;;;;;;;;;;5064154;28;20080;-57
2023/05/19 14:31:45;;;;;;;3.00;1.83;;;;;;;;;;5064740;28;20045;-59
2023/05/19 14:34:11;;;;;;;3.35;1.48;;;;;;;;;;5065098;28;20087;-59
2023/05/19 14:36:38;;;;;;;5.03;1.67;;;;;;;;;;5065976;28;20491;-59
2023/05/19 14:39:04;;;;;;;3.58;1.85;;;;;;;;;;5063898;28;20053;-56
2023/05/19 14:41:31;;;;;;;2.03;1.20;;;;;;;;;;5064323;28;20111;-59
2023/05/19 14:43:57;;;;;;;1.73;1.63;;;;;;;;;;5065149;28;20099;-55
2023/05/19 14:46:23;;;;;;;1.85;1.35;;;;;;;;;;5063797;28;20140;-58